Time;durP1;ratioP1;P1;durP2;ratioP2;P2;SDS_P1;SDS_P2;PMS_P1;PMS_P2;Temp;Humidity;BMP_temperature;BMP_pressure;BME280_temperature;BME280_humidity;BME280_pressure;Samples;Min_cycle;Max_cycle;Signal;HPM_P1;HPM_P2
2022/04/16 00:01:03;;;;;;;4.60;4.20;;;11.00;99.90;;;;;;5033930;28;20201;-68
2022/04/16 00:03:29;;;;;;;3.87;3.57;;;10.90;99.90;;;;;;5033948;28;20532;-67
2022/04/16 00:05:56;;;;;;;4.00;3.60;;;10.90;99.90;;;;;;5034151;28;20456;-68
2022/04/16 00:08:24;;;;;;;3.13;2.93;;;10.80;99.90;;;;;;5033654;28;20177;-68
2022/04/16 00:10:50;;;;;;;3.20;2.97;;;10.80;99.90;;;;;;5033878;28;20456;-68
2022/04/16 00:13:18;;;;;;;3.80;3.23;;;10.70;99.90;;;;;;5033689;28;20511;-67
2022/04/16 00:15:44;;;;;;;4.13;3.70;;;10.60;99.90;;;;;;5033630;28;20455;-68
2022/04/16 00:18:10;;;;;;;3.40;3.10;;;10.40;99.90;;;;;;5033453;28;20421;-68
2022/04/16 00:20:36;;;;;;;4.00;3.60;;;10.50;99.90;;;;;;5033622;28;20991;-67
2022/04/16 00:23:02;;;;;;;3.40;3.10;;;10.50;99.90;;;;;;5033550;28;20591;-68
2022/04/16 00:25:30;;;;;;;3.30;3.00;;;10.40;99.90;;;;;;5033557;28;20197;-68
2022/04/16 00:27:56;;;;;;;3.57;3.27;;;10.40;99.90;;;;;;5033413;28;20428;-68
2022/04/16 00:30:21;;;;;;;3.47;3.20;;;10.40;99.90;;;;;;5033089;28;20818;-67
2022/04/16 00:32:47;;;;;;;3.47;3.27;;;10.40;99.90;;;;;;5033334;28;20186;-68
2022/04/16 00:35:15;;;;;;;4.10;3.23;;;10.40;99.90;;;;;;5033371;28;20176;-68
2022/04/16 00:37:41;;;;;;;3.10;2.80;;;10.40;99.90;;;;;;5033211;28;20186;-67
2022/04/16 00:40:07;;;;;;;4.33;3.30;;;10.40;99.90;;;;;;5032987;28;20417;-68
2022/04/16 00:42:41;;;;;;;3.70;3.40;;;10.30;99.90;;;;;;5033127;28;20225;-67
2022/04/16 00:45:07;;;;;;;2.27;2.10;;;10.20;99.90;;;;;;5033084;28;20424;-68
2022/04/16 00:47:33;;;;;;;3.30;3.00;;;10.20;99.90;;;;;;5033232;28;20429;-67
2022/04/16 00:50:00;;;;;;;3.50;2.80;;;10.10;99.90;;;;;;5032775;28;20457;-67
2022/04/16 00:52:26;;;;;;;3.33;2.53;;;10.10;99.90;;;;;;5032836;28;20441;-68
2022/04/16 00:54:55;;;;;;;5.57;2.73;;;10.10;99.90;;;;;;5032987;28;20411;-68
2022/04/16 00:57:23;;;;;;;3.30;3.00;;;10.10;99.90;;;;;;5032871;28;20163;-67
2022/04/16 00:59:49;;;;;;;3.17;2.87;;;10.00;99.90;;;;;;5032675;28;20778;-68
2022/04/16 01:02:14;;;;;;;3.40;2.77;;;9.90;99.90;;;;;;5032696;28;20441;-69
2022/04/16 01:04:40;;;;;;;3.43;3.00;;;9.80;99.90;;;;;;5033032;28;20252;-68
2022/04/16 01:07:06;;;;;;;2.73;2.40;;;9.80;99.90;;;;;;5032797;28;20171;-67
2022/04/16 01:09:32;;;;;;;3.30;3.00;;;9.70;99.90;;;;;;5032433;28;20202;-68
2022/04/16 01:11:58;;;;;;;4.23;3.30;;;9.70;99.90;;;;;;5032522;28;20487;-67
2022/04/16 01:14:25;;;;;;;3.60;2.83;;;9.70;99.90;;;;;;5032655;28;20421;-69
2022/04/16 01:16:52;;;;;;;3.90;2.80;;;9.60;99.90;;;;;;5032624;28;20193;-67
2022/04/16 01:19:21;;;;;;;3.23;2.97;;;9.60;99.90;;;;;;5032219;28;20433;-68
2022/04/16 01:21:47;;;;;;;4.57;3.27;;;9.60;99.90;;;;;;5032490;28;20950;-68
2022/04/16 01:24:14;;;;;;;3.80;3.13;;;9.60;99.90;;;;;;5032495;28;20425;-67
2022/04/16 01:26:41;;;;;;;3.23;2.93;;;9.50;99.90;;;;;;5032333;28;20249;-67
2022/04/16 01:29:08;;;;;;;3.00;2.70;;;9.50;99.90;;;;;;5032062;28;20475;-68
2022/04/16 01:31:34;;;;;;;3.60;3.10;;;9.50;99.90;;;;;;5032296;28;20437;-68
2022/04/16 01:34:00;;;;;;;3.33;3.03;;;9.50;99.90;;;;;;5032281;28;20485;-68
2022/04/16 01:36:29;;;;;;;3.20;2.97;;;9.50;99.90;;;;;;5032193;28;20213;-67
2022/04/16 01:38:58;;;;;;;3.23;2.93;;;9.40;99.90;;;;;;5031940;28;20927;-68
2022/04/16 01:41:27;;;;;;;3.20;3.00;;;9.40;99.90;;;;;;5032151;28;20532;-68
2022/04/16 01:43:54;;;;;;;3.00;2.80;;;9.50;99.90;;;;;;5032181;28;20512;-67
2022/04/16 01:46:20;;;;;;;2.57;2.37;;;9.60;99.90;;;;;;5032418;28;20428;-68
2022/04/16 01:48:46;;;;;;;3.90;3.60;;;9.60;99.90;;;;;;5032206;28;20417;-67
2022/04/16 01:51:11;;;;;;;3.03;2.73;;;9.60;99.90;;;;;;5032029;28;20671;-67
2022/04/16 01:53:37;;;;;;;3.40;3.10;;;9.60;99.90;;;;;;5031944;28;20167;-67
2022/04/16 01:56:03;;;;;;;3.37;3.03;;;9.70;99.90;;;;;;5032742;28;20174;-67
2022/04/16 01:58:28;;;;;;;3.43;3.13;;;9.70;99.90;;;;;;5031706;28;20170;-67
2022/04/16 02:00:55;;;;;;;3.23;2.93;;;9.60;99.90;;;;;;5031902;28;20265;-67
2022/04/16 02:03:21;;;;;;;2.97;2.67;;;9.70;99.90;;;;;;5031397;28;20217;-67
2022/04/16 02:05:47;;;;;;;4.10;3.20;;;9.60;99.90;;;;;;5032066;28;20930;-68
2022/04/16 02:08:12;;;;;;;4.50;3.20;;;9.60;99.90;;;;;;5031552;28;20436;-72
2022/04/16 02:10:38;;;;;;;5.40;3.43;;;9.60;99.90;;;;;;5031834;28;20864;-67
2022/04/16 02:13:04;;;;;;;3.83;3.23;;;9.60;99.90;;;;;;5031781;28;20190;-67
2022/04/16 02:15:30;;;;;;;2.80;2.60;;;9.60;99.90;;;;;;5031777;28;20513;-67
2022/04/16 02:17:56;;;;;;;3.83;3.00;;;9.60;99.90;;;;;;5031841;28;20170;-68
2022/04/16 02:20:23;;;;;;;3.40;2.87;;;9.50;99.90;;;;;;5031597;28;20166;-67
2022/04/16 02:22:48;;;;;;;2.73;2.53;;;9.50;99.90;;;;;;5031603;28;20440;-68
2022/04/16 02:25:24;;;;;;;3.03;2.73;;;9.50;99.90;;;;;;5031795;28;20425;-67
2022/04/16 02:27:50;;;;;;;2.67;2.47;;;9.40;99.90;;;;;;5031753;28;20166;-68
2022/04/16 02:30:16;;;;;;;3.13;2.83;;;9.30;99.90;;;;;;5031613;28;20460;-67
2022/04/16 02:32:44;;;;;;;3.07;2.80;;;9.30;99.90;;;;;;5031657;28;20189;-69
2022/04/16 02:35:13;;;;;;;3.10;2.83;;;9.20;99.90;;;;;;5031699;28;20445;-68
2022/04/16 02:37:39;;;;;;;3.17;2.90;;;9.20;99.90;;;;;;5031486;28;20469;-67
2022/04/16 02:40:06;;;;;;;3.10;2.80;;;9.10;99.90;;;;;;5031557;28;20420;-68
2022/04/16 02:42:36;;;;;;;2.87;2.67;;;9.10;99.90;;;;;;5031535;28;20491;-67
2022/04/16 02:47:47;;;;;;;3.23;3.03;;;9.00;99.90;;;;;;5031794;28;21012;-68
2022/04/16 02:50:13;;;;;;;2.83;2.63;;;9.00;99.90;;;;;;5031197;28;20539;-68
2022/04/16 02:52:39;;;;;;;3.13;2.93;;;9.00;99.90;;;;;;5031498;28;20194;-67
2022/04/16 02:55:05;;;;;;;5.30;3.10;;;8.90;99.90;;;;;;5031777;28;20253;-67
2022/04/16 02:57:31;;;;;;;3.27;2.97;;;8.90;99.90;;;;;;5031497;28;20167;-68
2022/04/16 02:59:57;;;;;;;6.70;3.13;;;8.90;99.90;;;;;;5031154;28;20508;-67
2022/04/16 03:02:22;;;;;;;3.23;2.93;;;8.80;99.90;;;;;;5031286;28;20480;-68
2022/04/16 03:04:50;;;;;;;3.73;2.87;;;8.70;99.90;;;;;;5031501;28;20698;-68
2022/04/16 03:07:18;;;;;;;4.10;3.80;;;8.70;99.90;;;;;;5031374;28;20167;-67
2022/04/16 03:09:44;;;;;;;3.10;2.80;;;8.70;99.90;;;;;;5031099;28;20835;-67
2022/04/16 03:12:10;;;;;;;2.73;2.53;;;8.60;99.90;;;;;;5031331;28;20433;-69
2022/04/16 03:17:31;;;;;;;4.33;3.53;;;8.50;99.90;;;;;;5034948;28;21069;-67
2022/04/16 03:19:57;;;;;;;3.40;3.10;;;8.50;99.90;;;;;;5034685;28;20416;-68
2022/04/16 03:22:23;;;;;;;3.00;2.70;;;8.40;99.90;;;;;;5034712;28;20493;-67
2022/04/16 03:24:49;;;;;;;3.43;3.13;;;8.40;99.90;;;;;;5034778;28;20417;-68
2022/04/16 03:27:16;;;;;;;3.50;2.80;;;8.40;99.90;;;;;;5034645;28;20174;-67
2022/04/16 03:29:41;;;;;;;3.40;3.10;;;8.40;99.90;;;;;;5034207;28;20201;-68
2022/04/16 03:32:07;;;;;;;3.30;3.10;;;8.30;99.90;;;;;;5034764;28;20428;-68
2022/04/16 03:34:33;;;;;;;4.53;3.30;;;8.30;99.90;;;;;;5034500;28;20585;-67
2022/04/16 03:36:58;;;;;;;4.03;3.70;;;8.30;99.90;;;;;;5034447;28;20464;-68
2022/04/16 03:39:24;;;;;;;3.30;3.00;;;8.30;99.90;;;;;;5034265;28;20207;-68
2022/04/16 03:41:50;;;;;;;3.67;3.03;;;8.40;99.90;;;;;;5034341;28;20253;-70
2022/04/16 03:44:16;;;;;;;3.20;3.00;;;8.40;99.90;;;;;;5034316;28;20178;-67
2022/04/16 03:46:41;;;;;;;3.60;3.30;;;8.40;99.90;;;;;;5034403;28;20264;-68
2022/04/16 03:49:07;;;;;;;3.27;2.90;;;8.50;99.90;;;;;;5033858;28;20467;-68
2022/04/16 03:51:32;;;;;;;3.60;3.30;;;8.60;99.90;;;;;;5034212;28;20193;-68
2022/04/16 03:59:59;;;;;;;3.57;3.20;;;8.60;99.90;;;;;;5034269;28;20167;-67
2022/04/16 04:02:11;;;;;;;6.60;4.40;;;8.60;99.90;;;;;;5033914;28;20510;-68
2022/04/16 04:04:37;;;;;;;3.50;3.20;;;8.70;99.90;;;;;;5032804;28;20432;-66
2022/04/16 04:07:02;;;;;;;5.33;3.87;;;8.60;99.90;;;;;;5033818;28;20253;-68
2022/04/16 04:09:28;;;;;;;4.03;3.63;;;8.70;99.90;;;;;;5033532;28;20284;-69
2022/04/16 04:11:53;;;;;;;4.23;3.83;;;8.60;99.90;;;;;;5033769;28;20548;-67
2022/04/16 04:14:19;;;;;;;3.67;3.37;;;8.60;99.90;;;;;;5033960;28;20166;-67
2022/04/16 04:16:44;;;;;;;5.80;4.03;;;8.70;99.90;;;;;;5033851;28;20169;-70
2022/04/16 04:19:10;;;;;;;4.13;3.83;;;8.70;99.90;;;;;;5033439;28;20201;-67
2022/04/16 04:21:36;;;;;;;3.77;3.47;;;8.80;99.90;;;;;;5033545;28;20198;-68
2022/04/16 04:24:02;;;;;;;3.77;3.47;;;8.70;99.90;;;;;;5033863;28;20666;-68
2022/04/16 04:26:27;;;;;;;3.67;3.30;;;8.70;99.90;;;;;;5033043;28;20416;-68
2022/04/16 04:28:54;;;;;;;4.53;3.60;;;8.80;99.90;;;;;;5033258;28;20189;-67
2022/04/16 04:31:19;;;;;;;4.57;3.57;;;8.80;99.90;;;;;;5033358;28;20737;-68
2022/04/16 04:33:45;;;;;;;4.10;3.70;;;8.80;99.90;;;;;;5033426;28;20413;-67
2022/04/16 04:36:11;;;;;;;4.27;3.87;;;9.00;99.90;;;;;;5033304;28;20174;-69
2022/04/16 04:38:36;;;;;;;6.00;4.13;;;9.00;99.90;;;;;;5032957;28;20193;-67
2022/04/16 04:41:04;;;;;;;7.20;3.87;;;9.00;99.90;;;;;;5033116;28;20218;-67
2022/04/16 04:43:29;;;;;;;3.77;3.47;;;9.00;99.90;;;;;;5033285;28;20257;-68
2022/04/16 04:45:55;;;;;;;4.40;3.93;;;9.00;99.90;;;;;;5033194;28;20514;-66
2022/04/16 04:48:20;;;;;;;4.20;3.80;;;9.00;99.90;;;;;;5032890;28;20185;-67
2022/04/16 04:50:46;;;;;;;5.30;3.73;;;8.90;99.90;;;;;;5032948;28;20201;-68
2022/04/16 04:53:12;;;;;;;6.57;5.87;;;8.90;99.90;;;;;;5033018;28;20186;-68
2022/04/16 04:55:37;;;;;;;4.10;3.70;;;8.80;99.90;;;;;;5033049;28;20220;-68
2022/04/16 04:58:03;;;;;;;6.03;4.90;;;8.70;99.90;;;;;;5032962;28;20417;-67
2022/04/16 05:00:28;;;;;;;6.90;6.20;;;8.70;99.90;;;;;;5032742;28;20170;-68
2022/04/16 05:02:54;;;;;;;7.00;5.63;;;8.60;99.90;;;;;;5032774;28;20230;-68
2022/04/16 05:05:20;;;;;;;5.30;4.80;;;8.60;99.90;;;;;;5032762;28;20245;-67
2022/04/16 05:07:45;;;;;;;4.67;4.27;;;8.60;99.90;;;;;;5032803;28;20173;-68
2022/04/16 05:10:11;;;;;;;4.73;4.33;;;8.70;99.90;;;;;;5032313;28;20225;-67
2022/04/16 05:12:37;;;;;;;6.10;4.00;;;8.70;99.90;;;;;;5032644;28;20222;-68
2022/04/16 05:15:04;;;;;;;4.17;3.80;;;8.90;99.90;;;;;;5032746;28;20413;-66
2022/04/16 05:17:29;;;;;;;4.30;3.90;;;9.00;99.90;;;;;;5032694;28;20743;-68
2022/04/16 05:19:55;;;;;;;4.53;4.03;;;9.00;99.90;;;;;;5032185;28;20519;-68
2022/04/16 05:22:20;;;;;;;4.47;4.07;;;9.00;99.90;;;;;;5032537;28;20190;-68
2022/04/16 05:24:46;;;;;;;4.87;4.30;;;9.10;99.90;;;;;;5032453;28;20174;-67
2022/04/16 05:27:12;;;;;;;4.97;4.10;;;9.10;99.90;;;;;;5032393;28;20181;-67
2022/04/16 05:29:56;;;;;;;4.70;4.30;;;9.10;99.90;;;;;;5032162;28;20198;-69
2022/04/16 05:32:23;;;;;;;4.07;3.50;;;9.20;99.90;;;;;;5032263;28;20194;-67
2022/04/16 05:34:49;;;;;;;4.57;4.17;;;9.30;99.90;;;;;;5032384;28;20423;-67
2022/04/16 05:37:15;;;;;;;4.70;4.30;;;9.30;99.90;;;;;;5031627;28;20820;-67
2022/04/16 05:39:40;;;;;;;4.17;3.77;;;9.40;99.90;;;;;;5031953;28;20697;-67
2022/04/16 05:42:07;;;;;;;4.47;3.80;;;9.50;99.90;;;;;;5032144;28;20189;-69
2022/04/16 05:44:33;;;;;;;3.90;3.60;;;9.50;99.90;;;;;;5032206;28;20220;-68
2022/04/16 05:46:58;;;;;;;3.53;3.33;;;9.50;99.90;;;;;;5032126;28;20421;-67
2022/04/16 05:49:24;;;;;;;4.37;3.97;;;9.50;99.90;;;;;;5031712;28;20209;-68
2022/04/16 05:51:49;;;;;;;5.20;4.30;;;9.60;99.90;;;;;;5032022;28;20190;-67
2022/04/16 05:54:15;;;;;;;5.40;3.87;;;9.60;99.90;;;;;;5032267;28;20636;-68
2022/04/16 05:56:40;;;;;;;4.73;4.20;;;9.70;99.90;;;;;;5032106;28;20194;-67
2022/04/16 05:59:06;;;;;;;5.20;4.03;;;9.80;99.90;;;;;;5031731;28;20595;-68
2022/04/16 06:01:31;;;;;;;4.30;4.00;;;9.80;99.90;;;;;;5031906;28;20194;-68
2022/04/16 06:03:57;;;;;;;4.90;4.50;;;9.80;99.90;;;;;;5031944;28;20534;-67
2022/04/16 06:06:22;;;;;;;5.93;4.53;;;9.80;99.90;;;;;;5032119;28;20174;-68
2022/04/16 06:08:48;;;;;;;4.20;3.80;;;10.00;99.90;;;;;;5031238;28;20603;-68
2022/04/16 06:11:17;;;;;;;5.40;4.47;;;10.00;99.90;;;;;;5031768;28;20209;-68
2022/04/16 06:13:42;;;;;;;4.40;4.10;;;10.10;99.90;;;;;;5031975;28;20803;-67
2022/04/16 06:16:09;;;;;;;4.73;4.30;;;10.10;99.90;;;;;;5031963;28;20452;-68
2022/04/16 06:18:34;;;;;;;5.50;4.40;;;10.20;99.90;;;;;;5031512;28;20170;-68
2022/04/16 06:21:00;;;;;;;5.90;4.13;;;10.20;99.90;;;;;;5031839;28;20421;-67
2022/04/16 06:23:25;;;;;;;5.50;5.00;;;10.30;99.90;;;;;;5031654;28;20179;-69
2022/04/16 06:25:51;;;;;;;4.90;4.50;;;10.40;99.90;;;;;;5031696;28;20248;-67
2022/04/16 06:28:17;;;;;;;5.03;4.63;;;10.30;99.90;;;;;;5031513;28;20170;-67
2022/04/16 06:30:42;;;;;;;4.60;4.20;;;10.30;99.90;;;;;;5031650;28;20656;-69
2022/04/16 06:33:08;;;;;;;5.10;4.70;;;10.40;99.90;;;;;;5031654;28;20190;-68
2022/04/16 06:35:33;;;;;;;5.27;4.60;;;10.60;99.90;;;;;;5031743;28;20551;-68
2022/04/16 06:37:59;;;;;;;5.57;5.07;;;10.60;99.90;;;;;;5031383;28;20212;-70
2022/04/16 06:40:25;;;;;;;5.40;4.73;;;10.60;99.90;;;;;;5031441;28;20245;-68
2022/04/16 06:42:52;;;;;;;4.90;4.40;;;10.50;99.90;;;;;;5031577;28;20751;-67
2022/04/16 06:45:18;;;;;;;4.80;4.43;;;10.50;99.90;;;;;;5031621;28;20440;-68
2022/04/16 06:47:43;;;;;;;12.40;5.50;;;10.50;99.90;;;;;;5031547;28;20494;-67
2022/04/16 06:50:09;;;;;;;10.00;4.63;;;10.50;99.90;;;;;;5034255;28;20202;-67
2022/04/16 06:52:35;;;;;;;4.87;4.40;;;10.50;99.90;;;;;;5035230;28;20186;-68
2022/04/16 06:55:01;;;;;;;5.20;4.70;;;10.60;99.90;;;;;;5035301;28;20409;-67
2022/04/16 06:57:27;;;;;;;5.33;4.80;;;10.60;99.90;;;;;;5035123;28;20470;-68
2022/04/16 06:59:52;;;;;;;7.63;4.90;;;10.70;99.90;;;;;;5035003;28;20424;-69
2022/04/16 07:02:18;;;;;;;5.00;4.60;;;10.80;99.90;;;;;;5035087;28;20243;-68
2022/04/16 07:04:44;;;;;;;5.40;4.90;;;10.90;99.90;;;;;;5035195;28;20174;-67
2022/04/16 07:07:09;;;;;;;5.03;4.47;;;11.00;99.90;;;;;;5035058;28;20170;-68
2022/04/16 07:09:38;;;;;;;5.33;4.93;;;11.00;99.90;;;;;;5033098;28;20256;-67
2022/04/16 07:12:09;;;;;;;5.50;5.00;;;10.90;99.90;;;;;;5034863;28;20190;-70
2022/04/16 07:14:36;;;;;;;5.90;5.30;;;10.90;99.90;;;;;;5034903;28;20574;-68
2022/04/16 07:17:01;;;;;;;4.97;4.47;;;10.80;99.90;;;;;;5034692;28;20834;-68
2022/04/16 07:19:30;;;;;;;5.40;4.90;;;10.70;99.90;;;;;;5034761;28;20429;-68
2022/04/16 07:21:55;;;;;;;4.97;4.57;;;10.70;99.90;;;;;;5034790;28;20277;-68
2022/04/16 07:24:22;;;;;;;5.00;4.50;;;10.60;99.90;;;;;;5034664;28;20456;-68
2022/04/16 07:26:48;;;;;;;4.83;4.43;;;10.70;99.90;;;;;;5034683;28;20166;-67
2022/04/16 07:29:14;;;;;;;6.13;5.30;;;10.90;99.90;;;;;;5034296;28;20415;-68
2022/04/16 07:31:40;;;;;;;5.20;4.70;;;11.00;99.90;;;;;;5034446;28;20545;-68
2022/04/16 07:34:05;;;;;;;6.10;5.50;;;10.80;99.90;;;;;;5034503;28;20500;-67
2022/04/16 07:36:31;;;;;;;5.40;4.90;;;10.80;99.90;;;;;;5034486;28;20166;-68
2022/04/16 07:38:56;;;;;;;6.37;5.03;;;10.80;99.90;;;;;;5034339;28;20249;-68
2022/04/16 07:41:22;;;;;;;6.93;6.33;;;10.70;99.90;;;;;;5034391;28;20214;-69
2022/04/16 07:43:47;;;;;;;5.60;5.10;;;10.70;99.90;;;;;;5034394;28;20684;-68
2022/04/16 07:46:15;;;;;;;9.30;7.40;;;10.70;99.90;;;;;;5034277;28;20170;-68
2022/04/16 07:48:40;;;;;;;6.10;5.50;;;10.80;99.90;;;;;;5033943;28;20170;-67
2022/04/16 07:51:06;;;;;;;5.80;5.30;;;10.80;99.90;;;;;;5034253;28;20460;-67
2022/04/16 07:53:32;;;;;;;5.60;5.10;;;10.90;99.90;;;;;;5034124;28;20170;-68
2022/04/16 07:55:58;;;;;;;5.90;5.40;;;10.90;99.90;;;;;;5034774;28;20539;-69
2022/04/16 07:58:24;;;;;;;6.13;5.30;;;11.00;99.90;;;;;;5033878;28;20170;-67
2022/04/16 08:00:50;;;;;;;7.20;5.30;;;11.00;99.90;;;;;;5033263;28;20587;-67
2022/04/16 08:03:15;;;;;;;6.43;5.80;;;11.10;99.90;;;;;;5033889;28;20444;-68
2022/04/16 08:05:41;;;;;;;7.23;6.53;;;11.10;99.90;;;;;;5034080;28;20228;-67
2022/04/16 08:08:09;;;;;;;6.87;5.90;;;11.10;99.90;;;;;;5033877;28;20716;-68
2022/04/16 08:10:37;;;;;;;7.13;5.70;;;11.10;99.90;;;;;;5033698;28;20531;-70
2022/04/16 08:13:03;;;;;;;7.17;6.47;;;11.10;99.90;;;;;;5033755;28;20429;-68
2022/04/16 08:15:29;;;;;;;6.77;6.07;;;11.10;99.90;;;;;;5033668;28;20441;-68
2022/04/16 08:17:54;;;;;;;7.33;6.27;;;11.20;99.90;;;;;;5033659;28;20949;-68
2022/04/16 08:20:20;;;;;;;6.97;6.27;;;11.20;99.90;;;;;;5033482;28;20176;-68
2022/04/16 08:22:46;;;;;;;9.17;8.10;;;11.20;99.90;;;;;;5033541;28;20287;-68
2022/04/16 08:27:51;;;;;;;9.20;6.20;;;11.40;99.90;;;;;;5033513;28;20424;-67
2022/04/16 08:30:17;;;;;;;5.87;5.17;;;11.60;99.90;;;;;;5033468;28;20870;-68
2022/04/16 08:32:44;;;;;;;7.03;6.33;;;11.70;99.90;;;;;;5033468;28;20437;-68
2022/04/16 08:35:15;;;;;;;9.60;7.73;;;11.70;99.90;;;;;;5033424;28;20444;-68
2022/04/16 08:37:41;;;;;;;7.10;6.40;;;11.60;99.90;;;;;;5033285;28;20471;-67
2022/04/16 08:40:09;;;;;;;9.57;7.97;;;11.80;99.90;;;;;;5032940;28;20475;-69
2022/04/16 08:42:36;;;;;;;7.60;6.70;;;11.70;99.90;;;;;;5033058;28;20440;-67
2022/04/16 08:45:04;;;;;;;8.10;7.40;;;11.60;99.90;;;;;;5033209;28;20421;-67
2022/04/16 08:47:29;;;;;;;7.30;6.60;;;11.70;99.90;;;;;;5033125;28;20474;-68
2022/04/16 08:49:56;;;;;;;7.63;7.00;;;11.80;99.90;;;;;;5032893;28;20551;-68
2022/04/16 08:52:24;;;;;;;7.93;7.13;;;11.90;99.90;;;;;;5033091;28;20194;-67
2022/04/16 08:54:50;;;;;;;7.20;6.50;;;11.90;99.90;;;;;;5032934;28;20424;-68
2022/04/16 08:57:15;;;;;;;7.10;6.40;;;12.20;99.90;;;;;;5032899;28;20417;-68
2022/04/16 08:59:52;;;;;;;9.97;8.20;;;12.60;99.90;;;;;;5032774;28;20425;-70
2022/04/16 09:02:22;;;;;;;8.73;7.93;;;13.00;99.90;;;;;;5032867;28;20201;-69
2022/04/16 09:04:48;;;;;;;8.33;7.07;;;13.60;99.90;;;;;;5032768;28;20939;-69
2022/04/16 09:07:15;;;;;;;7.23;6.63;;;14.10;99.90;;;;;;5032851;28;20496;-69
2022/04/16 09:09:40;;;;;;;7.67;6.97;;;14.20;99.90;;;;;;5032333;28;20463;-68
2022/04/16 09:12:19;;;;;;;8.40;6.80;;;14.40;99.90;;;;;;5031293;28;20445;-69
2022/04/16 09:14:46;;;;;;;7.27;6.57;;;14.00;99.90;;;;;;5032638;28;20283;-68
2022/04/16 09:17:18;;;;;;;8.60;7.47;;;13.80;99.90;;;;;;5032587;28;20490;-68
2022/04/16 09:19:53;;;;;;;7.70;6.50;;;13.60;99.90;;;;;;5032145;28;20428;-68
2022/04/16 09:22:33;;;;;;;7.73;7.03;;;13.30;99.90;;;;;;5032478;28;21003;-68
2022/04/16 09:24:58;;;;;;;8.07;7.27;;;13.10;99.90;;;;;;5032523;28;20421;-68
2022/04/16 09:27:24;;;;;;;8.30;7.50;;;12.90;99.90;;;;;;5032519;28;20451;-68
2022/04/16 09:29:50;;;;;;;8.10;7.40;;;12.80;99.90;;;;;;5032120;28;20197;-69
2022/04/16 09:32:25;;;;;;;8.00;7.20;;;12.70;99.90;;;;;;5032249;28;20794;-68
2022/04/16 09:34:54;;;;;;;9.63;8.63;;;12.50;99.90;;;;;;5032321;28;20419;-68
2022/04/16 09:37:23;;;;;;;9.53;8.63;;;12.30;99.90;;;;;;5032118;28;20444;-68
2022/04/16 09:39:49;;;;;;;12.13;9.17;;;12.30;99.90;;;;;;5032064;28;20417;-68
2022/04/16 09:42:28;;;;;;;12.07;8.77;;;12.00;99.90;;;;;;5032125;28;20813;-68
2022/04/16 09:44:54;;;;;;;12.40;9.20;;;12.00;99.90;;;;;;5032123;28;20507;-68
2022/04/16 09:47:24;;;;;;;10.30;8.83;;;11.90;99.90;;;;;;5032086;28;20840;-68
2022/04/16 09:49:52;;;;;;;9.70;8.70;;;12.00;99.90;;;;;;5031743;28;20194;-68
2022/04/16 09:52:22;;;;;;;9.83;8.93;;;11.90;99.90;;;;;;5032085;28;20448;-68
2022/04/16 09:54:50;;;;;;;9.13;8.00;;;11.90;99.90;;;;;;5031973;28;20421;-67
2022/04/16 09:57:20;;;;;;;10.03;8.27;;;11.80;99.90;;;;;;5031928;28;20417;-68
2022/04/16 09:59:50;;;;;;;8.10;7.30;;;11.90;99.90;;;;;;5031733;28;20466;-67
2022/04/16 10:02:16;;;;;;;9.33;8.33;;;11.70;99.90;;;;;;5032090;28;20988;-67
2022/04/16 10:04:41;;;;;;;9.73;8.73;;;11.60;99.90;;;;;;5031939;28;20436;-67
2022/04/16 10:07:08;;;;;;;9.47;8.47;;;11.60;99.90;;;;;;5032003;28;20269;-68
2022/04/16 10:09:41;;;;;;;10.70;9.07;;;11.60;99.90;;;;;;5031580;28;20464;-68
2022/04/16 10:15:10;;;;;;;9.60;8.70;;;11.60;99.90;;;;;;5032086;28;20425;-68
2022/04/16 10:17:42;;;;;;;10.23;8.93;;;11.90;99.90;;;;;;5031802;28;20500;-68
2022/04/16 10:20:15;;;;;;;9.87;8.10;;;12.10;99.90;;;;;;5031557;28;20429;-68
2022/04/16 10:22:40;;;;;;;7.97;7.17;;;12.20;99.90;;;;;;5031695;28;20506;-68
2022/04/16 10:25:06;;;;;;;9.03;8.03;;;12.30;99.90;;;;;;5034843;28;20914;-68
2022/04/16 10:27:39;;;;;;;8.43;7.53;;;12.80;99.90;;;;;;5035873;28;20185;-68
2022/04/16 10:30:12;;;;;;;8.57;7.73;;;13.10;99.90;;;;;;5035351;28;20555;-67
2022/04/16 10:32:40;;;;;;;7.57;6.87;;;13.50;99.90;;;;;;5035709;28;20436;-68
2022/04/16 10:35:10;;;;;;;8.40;7.57;;;13.90;99.90;;;;;;5035567;28;20441;-69
2022/04/16 10:37:41;;;;;;;7.70;7.00;;;14.20;99.90;;;;;;5035585;28;20440;-68
2022/04/16 10:40:23;;;;;;;8.40;6.97;;;14.30;99.90;;;;;;5035352;28;20770;-67
2022/04/16 10:42:58;;;;;;;9.00;6.80;;;14.10;99.90;;;;;;5035558;28;20493;-68
2022/04/16 10:45:25;;;;;;;9.10;8.30;;;14.20;99.90;;;;;;5035408;28;20424;-68
2022/04/16 10:47:52;;;;;;;9.60;7.80;;;14.00;99.90;;;;;;5035388;28;20460;-69
2022/04/16 10:50:19;;;;;;;9.50;8.30;;;13.80;99.90;;;;;;5035097;28;20460;-67
2022/04/16 10:52:58;;;;;;;10.20;8.93;;;13.40;99.90;;;;;;5035318;28;20448;-67
2022/04/16 10:55:30;;;;;;;8.57;7.73;;;13.30;99.90;;;;;;5035323;28;20490;-68
2022/04/16 10:58:01;;;;;;;9.37;8.47;;;13.30;99.90;;;;;;5035154;28;20517;-68
2022/04/16 11:00:37;;;;;;;9.73;8.23;;;13.20;99.90;;;;;;5034936;28;20987;-70
2022/04/16 11:03:27;;;;;;;9.00;7.10;;;13.00;99.90;;;;;;5035015;28;20940;-67
2022/04/16 11:06:03;;;;;;;9.57;8.57;;;13.20;99.90;;;;;;5035143;28;20436;-68
2022/04/16 11:08:29;;;;;;;8.77;7.97;;;13.30;99.90;;;;;;5034731;28;20769;-68
2022/04/16 11:11:02;;;;;;;8.73;7.33;;;13.50;99.90;;;;;;5034930;28;20551;-67
2022/04/16 11:13:36;;;;;;;6.93;6.33;;;13.50;99.90;;;;;;5034948;28;20419;-68
2022/04/16 11:16:03;;;;;;;8.57;7.77;;;13.40;99.90;;;;;;5034926;28;20412;-68
2022/04/16 11:18:42;;;;;;;7.40;6.70;;;12.90;99.90;;;;;;5034495;28;20477;-68
2022/04/16 11:21:25;;;;;;;8.70;7.80;;;12.90;99.90;;;;;;5034731;28;20425;-68
2022/04/16 11:23:52;;;;;;;8.30;7.50;;;13.00;99.90;;;;;;5034917;28;20424;-67
2022/04/16 11:34:57;;;;;;;6.30;5.70;;;13.40;99.90;;;;;;5034141;28;20431;-68
2022/04/16 11:37:24;;;;;;;7.03;6.33;;;13.50;99.90;;;;;;5033996;28;20490;-67
2022/04/16 11:40:02;;;;;;;7.90;7.20;;;13.50;99.90;;;;;;5034175;28;20423;-68
2022/04/16 11:42:29;;;;;;;7.77;6.90;;;13.60;99.90;;;;;;5034379;28;20885;-68
2022/04/16 11:44:56;;;;;;;6.57;5.97;;;13.40;99.90;;;;;;5034412;28;20417;-68
2022/04/16 11:47:27;;;;;;;6.40;5.80;;;13.90;99.90;;;;;;5034256;28;20567;-68
2022/04/16 11:49:55;;;;;;;6.87;6.23;;;14.20;99.90;;;;;;5033882;28;20456;-68
2022/04/16 11:52:25;;;;;;;6.20;5.60;;;14.40;99.90;;;;;;5034156;28;20445;-67
2022/04/16 11:55:03;;;;;;;7.77;6.97;;;14.50;99.70;;;;;;5034144;28;20499;-68
2022/04/16 11:57:29;;;;;;;7.20;6.03;;;14.60;99.60;;;;;;5034105;28;20466;-68
2022/04/16 12:00:06;;;;;;;5.97;5.37;;;14.80;98.90;;;;;;5033845;28;20429;-69
2022/04/16 12:02:34;;;;;;;6.60;6.00;;;15.80;96.60;;;;;;5033873;28;20208;-68
2022/04/16 12:05:11;;;;;;;7.13;6.43;;;16.00;95.10;;;;;;5034003;28;20427;-68
2022/04/16 12:07:37;;;;;;;7.33;6.63;;;15.80;95.40;;;;;;5033881;28;20841;-67
2022/04/16 12:10:05;;;;;;;8.67;7.77;;;15.40;95.70;;;;;;5033428;28;20461;-68
2022/04/16 12:12:40;;;;;;;8.00;6.60;;;15.10;96.10;;;;;;5033715;28;20436;-67
2022/04/16 12:15:06;;;;;;;7.67;6.97;;;15.30;96.10;;;;;;5033853;28;20435;-68
2022/04/16 12:17:33;;;;;;;7.90;7.23;;;15.20;96.20;;;;;;5033719;28;20931;-69
2022/04/16 12:20:07;;;;;;;9.50;6.50;;;15.50;95.60;;;;;;5033502;28;20421;-68
2022/04/16 12:22:33;;;;;;;7.40;6.50;;;15.90;93.90;;;;;;5033675;28;20437;-69
2022/04/16 12:25:09;;;;;;;7.40;6.80;;;16.00;93.30;;;;;;5033676;28;20436;-69
2022/04/16 12:27:35;;;;;;;6.90;6.30;;;15.90;92.70;;;;;;5033473;28;20433;-68
2022/04/16 12:30:02;;;;;;;8.40;7.60;;;16.20;92.30;;;;;;5033163;28;20517;-68
2022/04/16 12:32:28;;;;;;;8.23;7.60;;;16.50;91.60;;;;;;5033395;28;20655;-68
2022/04/16 12:34:54;;;;;;;6.47;5.87;;;16.60;90.60;;;;;;5033379;28;20500;-68
2022/04/16 12:37:20;;;;;;;6.47;5.97;;;16.10;91.00;;;;;;5033319;28;20190;-69
2022/04/16 12:39:46;;;;;;;6.47;5.97;;;15.70;90.70;;;;;;5032992;28;20611;-69
2022/04/16 12:42:12;;;;;;;6.33;5.73;;;15.40;91.40;;;;;;5033085;28;20449;-69
2022/04/16 12:44:37;;;;;;;6.20;5.70;;;15.40;91.70;;;;;;5033164;28;20431;-69
2022/04/16 12:47:03;;;;;;;6.57;6.07;;;16.10;90.50;;;;;;5032825;28;20182;-68
2022/04/16 12:49:28;;;;;;;7.27;6.60;;;18.40;85.20;;;;;;5032788;28;20178;-69
2022/04/16 12:51:54;;;;;;;7.00;6.40;;;18.20;80.50;;;;;;5031659;28;20234;-68
2022/04/16 12:54:19;;;;;;;7.23;6.67;;;18.30;81.30;;;;;;5032823;28;20178;-68
2022/04/16 12:56:47;;;;;;;11.60;10.57;;;19.70;77.30;;;;;;5032715;28;20542;-70
2022/04/16 12:59:13;;;;;;;6.40;5.93;;;22.10;67.10;;;;;;5032541;28;20170;-68
2022/04/16 13:01:38;;;;;;;9.43;6.27;;;23.20;59.00;;;;;;5032743;28;20447;-68
2022/04/16 13:04:04;;;;;;;7.07;6.50;;;23.50;54.30;;;;;;5032723;28;20417;-68
2022/04/16 13:06:30;;;;;;;6.60;5.80;;;24.70;52.20;;;;;;5032726;28;20224;-70
2022/04/16 13:08:56;;;;;;;6.17;5.60;;;25.90;49.20;;;;;;5032575;28;20193;-68
2022/04/16 13:11:22;;;;;;;6.50;5.90;;;26.90;46.90;;;;;;5032611;28;20294;-68
2022/04/16 13:13:50;;;;;;;6.10;5.60;;;28.20;43.30;;;;;;5032767;28;20507;-69
2022/04/16 13:16:16;;;;;;;5.30;4.80;;;27.60;42.00;;;;;;5032639;28;20177;-68